Time;durP1;ratioP1;P1;durP2;ratioP2;P2;SDS_P1;SDS_P2;PMS_P1;PMS_P2;Temp;Humidity;BMP_temperature;BMP_pressure;BME280_temperature;BME280_humidity;BME280_pressure;Samples;Min_cycle;Max_cycle;Signal;HPM_P1;HPM_P2
2021/12/14 00:00:21;;;;;;;;;;;8.90;99.90;;;8.42;100.00;101697.03;4876605;29;19935;-74
2021/12/14 00:02:49;;;;;;;;;;;9.00;99.90;;;8.45;100.00;101704.06;4876863;29;20376;-74
2021/12/14 00:05:18;;;;;;;;;;;8.70;99.90;;;8.40;100.00;101700.50;4876896;29;20328;-74
2021/12/14 00:07:45;;;;;;;;;;;8.70;99.90;;;8.44;100.00;101705.78;4876604;29;19934;-75
2021/12/14 00:10:32;;;;;;;;;;;10.10;99.90;;;8.44;100.00;101697.91;4876190;29;19935;-75
2021/12/14 00:13:09;;;;;;;;;;;8.70;99.90;;;8.46;100.00;101704.03;4875785;29;19924;-74
2021/12/14 00:15:37;;;;;;;;;;;9.40;99.90;;;8.44;100.00;101702.28;4876529;29;20043;-74
2021/12/14 00:18:22;;;;;;;;;;;8.80;99.90;;;8.35;100.00;101710.94;4877365;29;20046;-75
2021/12/14 00:21:04;;;;;;;;;;;9.40;99.90;;;8.39;100.00;101715.38;4876268;29;20346;-75
2021/12/14 00:26:18;;;;;;;;;;;8.70;99.90;;;8.39;100.00;101715.38;4877540;29;19967;-74
2021/12/14 00:28:48;;;;;;;;;;;8.70;99.90;;;8.36;100.00;101716.22;4877141;29;19928;-74
2021/12/14 00:31:17;;;;;;;;;;;9.00;99.90;;;8.36;100.00;101715.34;4876283;29;20380;-75
2021/12/14 00:33:49;;;;;;;;;;;8.60;99.90;;;8.38;100.00;101708.38;4889948;29;20054;-74
2021/12/14 00:36:16;;;;;;;;;;;9.10;99.90;;;8.33;100.00;101708.34;4877541;29;20476;-73
2021/12/14 00:38:45;;;;;;;;;;;8.80;99.90;;;8.31;100.00;101707.47;4875799;29;20414;-75
2021/12/14 00:41:20;;;;;;;;;;;7.60;99.90;;;8.35;100.00;101713.56;4875929;29;19928;-75
2021/12/14 00:43:47;;;;;;;;;;;8.60;99.90;;;8.35;100.00;101711.84;4875148;29;19938;-75
2021/12/14 00:46:17;;;;;;;;;;;8.60;99.90;;;8.34;100.00;101710.09;4891678;29;19931;-75
2021/12/14 00:48:45;;;;;;;;;;;10.40;99.90;;;8.29;100.00;101703.94;4889295;29;20560;-74
2021/12/14 00:51:12;;;;;;;;;;;8.60;99.90;;;8.25;100.00;101712.63;4894817;29;20041;-75
2021/12/14 00:53:40;;;;;;;;;;;9.00;99.90;;;8.27;100.00;101716.16;4878704;29;19923;-75
2021/12/14 00:56:10;;;;;;;;;;;8.60;99.90;;;8.26;100.00;101711.75;4895902;29;20502;-74
2021/12/14 00:58:37;;;;;;;;;;;9.80;99.90;;;8.28;100.00;101711.78;4894481;29;20482;-74
2021/12/14 01:01:15;;;;;;;;;;;8.50;99.90;;;8.24;100.00;101710.88;4894277;29;20027;-75
2021/12/14 01:03:46;;;;;;;;;;;8.60;99.90;;;8.22;100.00;101702.13;4908919;29;19960;-75
2021/12/14 01:06:14;;;;;;;;;;;8.50;99.90;;;8.22;100.00;101696.88;4909988;29;19958;-74
2021/12/14 01:08:44;;;;;;;;;;;8.50;99.90;;;8.21;100.00;101703.88;4893669;29;20046;-74
2021/12/14 01:11:36;;;;;;;;;;;8.50;99.90;;;8.17;100.00;101703.84;4894410;29;19987;-75
2021/12/14 01:14:17;;;;;;;;;;;9.30;99.90;;;8.16;100.00;101697.72;4894721;29;19938;-75
2021/12/14 01:17:06;;;;;;;;;;;8.60;99.90;;;8.11;100.00;101709.91;4894324;29;19923;-74
2021/12/14 01:19:36;;;;;;;;;;;8.50;99.90;;;8.12;100.00;101698.56;4894969;29;19931;-75
2021/12/14 01:25:13;;;;;;;;;;;8.40;99.90;;;8.04;100.00;101706.38;4893171;29;19927;-74
2021/12/14 01:27:46;;;;;;;;;;;8.60;99.90;;;7.99;100.00;101707.19;4859735;29;20007;-75
2021/12/14 01:30:20;;;;;;;;;;;9.60;99.90;;;7.96;100.00;101708.06;4856944;29;20020;-75
2021/12/14 01:32:48;;;;;;;;;;;8.40;99.90;;;7.96;100.00;101705.44;4856368;29;19928;-75
2021/12/14 01:35:20;;;;;;;;;;;8.30;99.90;;;7.93;100.00;101703.66;4843286;29;20365;-74
2021/12/14 01:38:01;;;;;;;;;;;8.30;99.90;;;8.00;100.00;101712.47;4877534;29;19924;-75
2021/12/14 01:40:53;;;;;;;;;;;10.10;99.90;;;7.95;100.00;101701.94;4873296;29;20557;-75
2021/12/14 01:43:57;;;;;;;;;;;8.40;99.90;;;7.87;100.00;101698.34;4895895;29;19933;-75
2021/12/14 01:46:36;;;;;;;;;;;8.30;99.90;;;7.86;100.00;101703.59;4875201;29;19975;-74
2021/12/14 01:49:27;;;;;;;;;;;8.30;99.90;;;7.81;100.00;101700.94;4874445;29;19955;-74
2021/12/14 01:52:12;;;;;;;;;;;8.20;99.90;;;7.80;100.00;101696.56;4874028;29;19934;-75
2021/12/14 01:54:46;;;;;;;;;;;8.20;99.90;;;7.83;100.00;101709.69;4892908;29;19982;-75
2021/12/14 01:57:20;;;;;;;;;;;8.20;99.90;;;7.79;100.00;101703.53;4878286;29;19995;-75
2021/12/14 02:00:11;;;;;;;;;;;8.70;99.90;;;7.83;100.00;101707.06;4895208;29;20636;-74
2021/12/14 02:02:44;;;;;;;;;;;8.20;99.90;;;7.80;100.00;101714.91;4896880;29;19961;-77
2021/12/14 02:05:15;;;;;;;;;;;8.20;99.90;;;7.79;100.00;101718.41;4893744;29;19975;-75
2021/12/14 02:07:43;;;;;;;;;;;8.20;99.90;;;7.78;100.00;101711.41;4890109;29;19928;-75
2021/12/14 02:10:22;;;;;;;;;;;8.20;99.90;;;7.75;100.00;101714.00;4859610;29;19976;-77
2021/12/14 02:12:49;;;;;;;;;;;8.20;99.90;;;7.72;100.00;101711.31;4841652;29;19935;-75
2021/12/14 02:15:23;;;;;;;;;;;8.10;99.90;;;7.76;100.00;101715.75;4871725;29;19924;-75
2021/12/14 02:17:52;;;;;;;;;;;8.10;99.90;;;7.73;100.00;101719.22;4856157;29;19934;-74
2021/12/14 02:20:27;;;;;;;;;;;8.10;99.90;;;7.71;100.00;101725.28;4877411;29;19950;-76
2021/12/14 02:22:55;;;;;;;;;;;8.10;99.90;;;7.67;100.00;101716.53;4873494;29;19928;-75
2021/12/14 02:25:22;;;;;;;;;;;8.10;99.90;;;7.69;100.00;101727.00;4859114;29;19928;-77
2021/12/14 02:27:52;;;;;;;;;;;8.10;99.90;;;7.69;100.00;101732.25;4875819;29;19978;-75
2021/12/14 02:30:24;;;;;;;;;;;9.30;99.90;;;7.65;100.00;101724.38;4874990;29;19963;-75
2021/12/14 02:32:51;;;;;;;;;;;8.00;99.90;;;7.71;100.00;101720.03;4873755;29;19927;-75
2021/12/14 02:35:22;;;;;;;;;;;8.10;99.90;;;7.64;100.00;101711.25;4882377;29;19931;-75
2021/12/14 02:37:54;;;;;;;;;;;8.00;99.90;;;7.61;100.00;101706.88;4877500;29;19923;-75
2021/12/14 02:40:53;;;;;;;;;;;8.10;99.90;;;7.67;100.00;101708.69;4892471;29;19951;-75
2021/12/14 02:43:35;;;;;;;;;;;8.00;99.90;;;7.68;100.00;101720.03;4863486;29;19931;-75
2021/12/14 02:46:18;;;;;;;;;;;8.10;99.90;;;7.64;100.00;101721.72;4888107;29;19931;-74
2021/12/14 02:48:50;;;;;;;;;;;8.00;99.90;;;7.63;100.00;101720.88;4892101;29;20411;-75
2021/12/14 02:51:30;;;;;;;;;;;8.00;99.90;;;7.61;100.00;101725.22;4877719;29;19958;-74
2021/12/14 02:54:05;;;;;;;;;;;8.00;99.90;;;7.58;100.00;101724.28;4891932;29;20249;-74
2021/12/14 02:56:34;;;;;;;;;;;8.20;99.90;;;7.62;100.00;101729.59;4862227;29;19934;-75
2021/12/14 02:59:16;;;;;;;;;;;8.00;99.90;;;7.60;100.00;101728.69;4876673;29;19934;-76
2021/12/14 03:01:46;;;;;;;;;;;8.30;99.90;;;7.59;100.00;101740.03;4878492;29;19927;-75
2021/12/14 03:04:16;;;;;;;;;;;9.10;99.90;;;7.58;100.00;101740.00;4876458;29;20018;-74
2021/12/14 03:06:49;;;;;;;;;;;8.10;99.90;;;7.53;100.00;101739.97;4877343;29;19967;-74
2021/12/14 03:12:39;;;;;;;;;;;8.00;99.90;;;7.55;100.00;101738.22;4892044;29;20655;-74
2021/12/14 03:15:22;;;;;;;;;;;7.90;99.90;;;7.56;100.00;101739.13;4856315;29;19935;-74
2021/12/14 03:17:55;;;;;;;;;;;7.90;99.90;;;7.64;100.00;101735.72;4856372;29;19928;-77
2021/12/14 03:20:24;;;;;;;;;;;7.90;99.90;;;7.65;100.00;101739.22;4892612;29;19927;-76
2021/12/14 03:23:05;;;;;;;;;;;8.30;99.90;;;7.64;100.00;101729.59;4892040;29;19954;-75
2021/12/14 03:25:34;;;;;;;;;;;8.40;99.90;;;7.70;100.00;101715.66;4878767;29;19931;-74
2021/12/14 03:28:02;;;;;;;;;;;8.60;99.90;;;7.63;100.00;101712.13;4889400;29;20667;-74
2021/12/14 03:30:32;;;;;;;;;;;8.00;99.90;;;7.54;100.00;101718.13;4873096;29;19924;-74
2021/12/14 03:33:13;;;;;;;;;;;7.90;99.90;;;7.51;100.00;101708.53;4873197;29;19934;-75
2021/12/14 03:35:54;;;;;;;;;;;8.00;99.90;;;7.51;100.00;101710.25;4874144;29;19946;-76
2021/12/14 03:38:30;;;;;;;;;;;8.20;99.90;;;7.76;100.00;101708.75;4887808;29;19928;-74
2021/12/14 03:41:08;;;;;;;;;;;7.90;99.90;;;7.72;100.00;101708.69;4874109;29;20342;-74
2021/12/14 03:43:36;;;;;;;;;;;7.90;99.90;;;7.68;100.00;101712.16;4874522;29;19934;-75
2021/12/14 03:46:08;;;;;;;;;;;7.80;99.90;;;7.64;100.00;101699.03;4873883;29;19928;-75
2021/12/14 03:48:37;;;;;;;;;;;7.90;99.90;;;7.59;100.00;101713.84;4888993;29;19932;-74
2021/12/14 03:51:05;;;;;;;;;;;7.90;99.90;;;7.53;100.00;101703.28;4874098;29;20403;-74
2021/12/14 03:53:32;;;;;;;;;;;7.80;99.90;;;7.58;100.00;101699.00;4873012;29;19931;-74
2021/12/14 03:56:03;;;;;;;;;;;7.90;99.90;;;7.69;100.00;101712.19;4873925;29;20326;-76
2021/12/14 03:58:35;;;;;;;;;;;7.80;99.90;;;7.73;100.00;101713.09;4888424;29;19923;-74
2021/12/14 04:01:10;;;;;;;;;;;7.80;99.90;;;7.68;100.00;101705.19;4873046;29;20119;-74
2021/12/14 04:03:45;;;;;;;;;;;8.70;99.90;;;7.71;100.00;101709.56;4872653;29;20282;-73
2021/12/14 04:06:18;;;;;;;;;;;7.40;99.90;;;7.70;100.00;101710.44;4873857;29;20304;-75
2021/12/14 04:08:46;;;;;;;;;;;7.80;99.90;;;7.59;100.00;101706.00;4859654;29;19927;-73
2021/12/14 04:11:15;;;;;;;;;;;7.90;99.90;;;7.56;100.00;101705.06;4877274;29;19928;-74
2021/12/14 04:13:46;;;;;;;;;;;7.80;99.90;;;7.54;100.00;101706.81;4876053;29;19929;-74
2021/12/14 04:16:21;;;;;;;;;;;7.90;99.90;;;7.50;100.00;101696.31;4876410;29;19923;-74
2021/12/14 04:18:51;;;;;;;;;;;7.90;99.90;;;7.47;100.00;101700.63;4876894;29;19972;-74
2021/12/14 04:21:22;;;;;;;;;;;7.80;99.90;;;7.60;100.00;101718.22;4877339;29;19982;-75
2021/12/14 04:23:51;;;;;;;;;;;8.50;99.90;;;7.66;100.00;101717.41;4876322;29;20379;-75
2021/12/14 04:26:21;;;;;;;;;;;7.80;99.90;;;7.68;100.00;101712.16;4877427;29;20015;-74
2021/12/14 04:28:52;;;;;;;;;;;8.50;99.90;;;7.61;100.00;101716.47;4861301;29;19931;-76
2021/12/14 04:31:20;;;;;;;;;;;7.80;99.90;;;7.67;100.00;101706.06;4877825;29;19932;-77
2021/12/14 04:33:50;;;;;;;;;;;7.90;99.90;;;7.62;100.00;101703.38;4876634;29;19931;-74
2021/12/14 04:36:23;;;;;;;;;;;9.30;99.90;;;7.55;100.00;101685.84;4876824;29;19963;-73
2021/12/14 04:39:02;;;;;;;;;;;7.90;99.90;;;7.55;100.00;101698.06;4876240;29;20312;-75
2021/12/14 04:53:10;;;;;;;;;;;7.70;99.90;;;7.42;100.00;101656.03;4874852;29;19995;-75
2021/12/14 04:55:41;;;;;;;;;;;7.70;99.90;;;7.40;100.00;101657.78;4887475;29;19927;-79
2021/12/14 04:58:09;;;;;;;;;;;7.70;99.90;;;7.43;100.00;101656.94;4866185;29;20007;-75
2021/12/14 05:00:43;;;;;;;;;;;7.90;99.90;;;7.38;100.00;101644.66;4840767;29;19928;-74
2021/12/14 05:03:32;;;;;;;;;;;7.60;99.90;;;7.35;100.00;101655.09;4754163;29;20465;-78
2021/12/14 05:09:21;;;;;;;;;;;7.90;99.90;;;7.45;100.00;101669.16;4857904;29;19927;-74
2021/12/14 05:12:07;;;;;;;;;;;7.50;99.90;;;7.41;100.00;101666.50;4868776;29;20469;-74
2021/12/14 05:14:42;;;;;;;;;;;7.60;99.90;;;7.41;100.00;101658.63;4874872;29;20022;-74
2021/12/14 05:17:13;;;;;;;;;;;7.60;99.90;;;7.43;100.00;101657.81;4886780;29;19928;-76
2021/12/14 05:19:45;;;;;;;;;;;7.60;99.90;;;7.43;100.00;101670.91;4867961;29;19934;-76
2021/12/14 05:22:18;;;;;;;;;;;7.60;99.90;;;7.46;100.00;101667.44;4892384;29;20454;-76
2021/12/14 05:25:03;;;;;;;;;;;7.60;99.90;;;7.46;100.00;101660.44;4892171;29;20353;-77
2021/12/14 05:27:37;;;;;;;;;;;7.60;99.90;;;7.43;100.00;101654.31;4892182;29;19935;-75
2021/12/14 05:30:12;;;;;;;;;;;7.70;99.90;;;7.42;100.00;101652.56;4876099;29;19927;-76
2021/12/14 05:33:02;;;;;;;;;;;7.70;99.90;;;7.39;100.00;101645.56;4853075;29;19935;-74
2021/12/14 05:35:30;;;;;;;;;;;7.60;99.90;;;7.40;100.00;101646.41;4836524;29;19955;-74
2021/12/14 05:37:58;;;;;;;;;;;7.80;99.90;;;7.42;100.00;101652.56;4853583;29;19927;-75
2021/12/14 05:43:17;;;;;;;;;;;8.10;99.90;;;7.37;100.00;101648.13;4870007;29;20026;-75
2021/12/14 05:46:03;;;;;;;;;;;7.60;99.90;;;7.34;100.00;101648.13;4860527;29;19961;-75
2021/12/14 05:48:40;;;;;;;;;;;8.80;99.90;;;7.35;100.00;101654.25;4865323;29;20366;-75
2021/12/14 05:51:09;;;;;;;;;;;7.60;99.90;;;7.29;100.00;101659.41;4868352;29;20389;-75
2021/12/14 05:53:42;;;;;;;;;;;7.50;99.90;;;7.29;100.00;101657.69;4866337;29;19927;-74
2021/12/14 05:56:15;;;;;;;;;;;9.20;99.90;;;7.30;100.00;101656.81;4862920;29;20400;-74
2021/12/14 05:58:43;;;;;;;;;;;7.50;99.90;;;7.30;100.00;101646.34;4855175;29;19982;-76
2021/12/14 06:01:15;;;;;;;;;;;7.70;99.90;;;7.27;100.00;101638.47;4848554;29;19997;-77
2021/12/14 06:03:55;;;;;;;;;;;7.50;99.90;;;7.12;100.00;101641.78;4859077;29;19928;-75
2021/12/14 06:06:44;;;;;;;;;;;8.40;99.90;;;7.11;100.00;101631.31;4871549;29;21171;-77
2021/12/14 06:09:35;;;;;;;;;;;7.50;99.90;;;7.03;100.00;101634.72;4873093;29;19956;-75
2021/12/14 06:12:15;;;;;;;;;;;7.50;99.90;;;7.18;100.00;101631.41;4873523;29;19924;-76
2021/12/14 06:14:52;;;;;;;;;;;8.00;99.90;;;6.95;100.00;101623.28;4873913;29;20684;-76
2021/12/14 06:17:29;;;;;;;;;;;7.40;99.90;;;6.94;100.00;101614.56;4856128;29;19935;-75
2021/12/14 06:20:04;;;;;;;;;;;7.40;99.90;;;6.94;100.00;101626.75;4877342;29;19927;-75
2021/12/14 06:22:36;;;;;;;;;;;7.40;99.90;;;6.94;100.00;101626.75;4874329;29;19927;-76
2021/12/14 06:25:15;;;;;;;;;;;7.40;99.90;;;6.95;100.00;101634.63;4874315;29;19928;-75
2021/12/14 06:27:44;;;;;;;;;;;7.40;99.90;;;7.03;100.00;101624.25;4889356;29;19928;-75
2021/12/14 06:30:17;;;;;;;;;;;7.80;99.90;;;7.08;100.00;101608.59;4874095;29;20043;-76
2021/12/14 06:32:54;;;;;;;;;;;8.30;99.90;;;6.98;100.00;101609.34;4872550;29;19924;-76
2021/12/14 06:35:32;;;;;;;;;;;7.30;99.90;;;6.90;100.00;101619.72;4858839;29;20337;-76
2021/12/14 06:38:34;;;;;;;;;;;7.40;99.90;;;6.83;100.00;101610.06;4873623;29;20642;-76
2021/12/14 06:41:17;;;;;;;;;;;7.30;99.90;;;6.87;100.00;101628.44;4873954;29;19923;-74
2021/12/14 06:43:57;;;;;;;;;;;7.20;99.90;;;6.75;100.00;101650.06;4859047;29;20349;-75
2021/12/14 06:46:34;;;;;;;;;;;9.00;99.90;;;6.81;100.00;101649.28;4873808;29;19980;-76
2021/12/14 06:49:09;;;;;;;;;;;7.20;99.90;;;6.79;100.00;101667.59;4882514;29;19928;-76
2021/12/14 06:51:46;;;;;;;;;;;8.40;99.90;;;6.72;100.00;101667.50;4892655;29;20804;-76
2021/12/14 06:54:25;;;;;;;;;;;7.20;99.90;;;6.79;100.00;101664.09;4894170;29;20266;-76
2021/12/14 06:57:03;;;;;;;;;;;7.20;99.90;;;6.79;100.00;101659.75;4892684;29;19931;-76
2021/12/14 06:59:59;;;;;;;;;;;7.20;99.90;;;6.73;100.00;101654.41;4892844;29;20005;-76
2021/12/14 07:02:50;;;;;;;;;;;7.20;99.90;;;6.77;100.00;101648.34;4894854;29;19923;-75
2021/12/14 07:05:50;;;;;;;;;;;7.10;99.90;;;6.79;100.00;101646.66;4894200;29;19982;-76
2021/12/14 07:08:24;;;;;;;;;;;7.20;99.90;;;6.79;100.00;101648.38;4892112;29;19923;-76
2021/12/14 07:11:09;;;;;;;;;;;7.80;99.90;;;6.81;100.00;101639.72;4892730;29;19916;-76
2021/12/14 07:13:38;;;;;;;;;;;7.70;99.90;;;6.76;100.00;101651.81;4891589;29;19923;-75
2021/12/14 07:16:24;;;;;;;;;;;7.10;99.90;;;6.80;100.00;101674.56;4891342;29;19927;-74
2021/12/14 07:18:53;;;;;;;;;;;7.10;99.90;;;6.75;100.00;101673.63;4877717;29;19959;-76
2021/12/14 07:21:41;;;;;;;;;;;7.70;99.90;;;6.73;100.00;101692.78;4892865;29;19927;-75
2021/12/14 07:24:29;;;;;;;;;;;7.20;99.90;;;6.62;100.00;101703.06;4893133;29;19945;-77
2021/12/14 07:27:35;;;;;;;;;;;7.20;99.90;;;6.66;100.00;101691.81;4892096;29;19932;-75
2021/12/14 07:30:14;;;;;;;;;;;7.10;99.90;;;6.68;100.00;101692.72;4887521;29;19927;-75
2021/12/14 07:33:10;;;;;;;;;;;7.00;99.90;;;6.62;100.00;101714.44;4892832;29;19923;-75
2021/12/14 07:35:48;;;;;;;;;;;7.10;99.90;;;6.65;100.00;101711.00;4892612;29;20018;-75
2021/12/14 07:38:24;;;;;;;;;;;7.00;99.90;;;6.69;100.00;101718.03;4892442;29;19934;-75
2021/12/14 07:41:18;;;;;;;;;;;7.10;99.90;;;6.62;100.00;101718.78;4892702;29;20452;-76
2021/12/14 07:44:01;;;;;;;;;;;7.10;99.90;;;6.65;100.00;101711.00;4870171;29;19934;-76
2021/12/14 07:46:52;;;;;;;;;;;7.10;99.90;;;6.60;100.00;101704.78;4878019;29;19931;-75
2021/12/14 07:49:33;;;;;;;;;;;7.00;99.90;;;6.60;100.00;101705.69;4874818;29;20345;-74
2021/12/14 07:52:00;;;;;;;;;;;7.10;99.90;;;6.58;100.00;101706.50;4877542;29;19935;-75
2021/12/14 07:54:48;;;;;;;;;;;7.00;99.90;;;6.54;100.00;101700.34;4886669;29;20010;-75
2021/12/14 07:57:27;;;;;;;;;;;7.10;99.90;;;6.57;100.00;101684.72;4862631;29;20400;-74
2021/12/14 08:00:07;;;;;;;;;;;7.10;99.90;;;6.48;100.00;101713.34;4857958;29;19931;-75
2021/12/14 08:02:44;;;;;;;;;;;8.80;99.90;;;6.47;100.00;101714.22;4857725;29;19924;-75
2021/12/14 08:05:17;;;;;;;;;;;6.90;99.90;;;6.46;100.00;101715.94;4862982;29;19928;-72
2021/12/14 08:08:19;;;;;;;;;;;6.90;99.90;;;6.59;100.00;101723.97;4883172;29;20058;-75
2021/12/14 08:11:29;;;;;;;;;;;6.80;99.90;;;6.53;100.00;101730.88;4876460;29;19923;-75
2021/12/14 08:14:09;;;;;;;;;;;7.50;99.90;;;6.56;100.00;101716.09;4878244;29;19939;-75
2021/12/14 08:16:46;;;;;;;;;;;6.90;99.90;;;6.60;100.00;101720.50;4857887;29;20337;-75
2021/12/14 08:19:22;;;;;;;;;;;6.80;99.90;;;6.57;100.00;101725.69;4858593;29;19924;-75
2021/12/14 08:21:49;;;;;;;;;;;6.90;99.90;;;6.44;100.00;101725.50;4875142;29;19928;-73
2021/12/14 08:24:17;;;;;;;;;;;6.80;99.90;;;6.59;100.00;101729.19;4876600;29;19928;-75
2021/12/14 08:26:57;;;;;;;;;;;6.80;99.90;;;6.47;100.00;101719.44;4876122;29;19924;-75
2021/12/14 08:29:27;;;;;;;;;;;6.80;99.90;;;6.40;100.00;101710.63;4875741;29;20389;-73
2021/12/14 08:32:02;;;;;;;;;;;6.80;99.90;;;6.49;100.00;101696.81;4876547;29;19928;-74
2021/12/14 08:34:48;;;;;;;;;;;7.00;99.90;;;6.46;100.00;101718.56;4875679;29;19923;-75
2021/12/14 08:37:33;;;;;;;;;;;7.60;99.90;;;6.43;100.00;101725.50;4871139;29;19944;-74
2021/12/14 08:40:04;;;;;;;;;;;6.80;99.90;;;6.33;100.00;101721.88;4872157;29;20034;-74
2021/12/14 08:42:39;;;;;;;;;;;6.80;99.90;;;6.34;100.00;101734.94;4872592;29;20043;-74
2021/12/14 08:45:26;;;;;;;;;;;6.70;99.90;;;6.17;100.00;101739.03;4857315;29;19928;-75
2021/12/14 08:48:02;;;;;;;;;;;6.70;99.90;;;6.22;100.00;101737.34;4872149;29;19924;-75
2021/12/14 08:50:33;;;;;;;;;;;6.70;99.90;;;6.24;100.00;101719.97;4858355;29;19947;-75
2021/12/14 08:53:00;;;;;;;;;;;6.70;99.90;;;6.29;100.00;101733.09;4893644;29;19949;-75
2021/12/14 08:55:32;;;;;;;;;;;6.70;99.90;;;6.31;100.00;101724.44;4893409;29;20018;-73
2021/12/14 08:58:00;;;;;;;;;;;6.70;99.90;;;6.31;100.00;101744.47;4894837;29;20341;-74
2021/12/14 09:00:32;;;;;;;;;;;6.70;99.90;;;6.30;100.00;101738.38;4894562;29;20022;-74
2021/12/14 09:03:01;;;;;;;;;;;7.70;99.90;;;6.32;100.00;101741.00;4894100;29;20351;-74
2021/12/14 09:05:50;;;;;;;;;;;6.70;99.90;;;6.27;100.00;101740.94;4895567;29;19929;-74
2021/12/14 09:08:19;;;;;;;;;;;6.70;99.90;;;6.29;100.00;101744.44;4895424;29;19931;-74
2021/12/14 09:10:51;;;;;;;;;;;6.90;99.90;;;6.29;100.00;101749.69;4894247;29;20357;-74
2021/12/14 09:13:18;;;;;;;;;;;6.70;99.90;;;6.31;100.00;101749.69;4875084;29;19923;-75
2021/12/14 09:15:50;;;;;;;;;;;6.70;99.90;;;6.34;100.00;101755.00;4890757;29;19934;-74
2021/12/14 09:18:23;;;;;;;;;;;6.70;99.90;;;6.40;100.00;101752.47;4890426;29;19978;-74
2021/12/14 09:21:12;;;;;;;;;;;6.80;99.90;;;6.38;100.00;101751.56;4888087;29;19927;-74
2021/12/14 09:23:43;;;;;;;;;;;7.70;99.90;;;6.48;100.00;101750.84;4874835;29;19923;-75
2021/12/14 09:26:17;;;;;;;;;;;6.80;99.90;;;6.39;100.00;101735.00;4890547;29;20483;-73
2021/12/14 09:28:45;;;;;;;;;;;6.80;99.90;;;6.34;100.00;101728.84;4876503;29;19952;-74
2021/12/14 09:31:16;;;;;;;;;;;8.50;99.90;;;6.33;100.00;101748.00;4890567;29;19930;-73
2021/12/14 09:33:43;;;;;;;;;;;6.70;99.90;;;6.36;100.00;101738.44;4876050;29;19924;-74
2021/12/14 09:36:13;;;;;;;;;;;6.80;99.90;;;6.28;100.00;101752.25;4883203;29;19984;-73
2021/12/14 09:38:47;;;;;;;;;;;6.80;99.90;;;6.34;100.00;101758.47;4856464;29;19924;-72
2021/12/14 09:41:21;;;;;;;;;;;6.80;99.90;;;6.31;100.00;101760.16;4856630;29;19928;-73
2021/12/14 09:43:49;;;;;;;;;;;7.10;99.90;;;6.30;100.00;101759.28;4856029;29;20643;-74
2021/12/14 09:46:18;;;;;;;;;;;6.70;99.90;;;6.29;100.00;101756.63;4856192;29;20389;-72
2021/12/14 09:48:53;;;;;;;;;;;7.70;99.90;;;6.28;100.00;101760.09;4856317;29;19928;-74
2021/12/14 09:51:29;;;;;;;;;;;6.70;99.90;;;6.28;100.00;101760.09;4856293;29;20564;-74
2021/12/14 09:53:58;;;;;;;;;;;7.70;99.90;;;6.32;100.00;101754.06;4869603;29;19988;-74
2021/12/14 09:56:27;;;;;;;;;;;7.20;99.90;;;6.37;100.00;101753.28;4873547;29;19967;-74
2021/12/14 09:58:59;;;;;;;;;;;7.90;99.90;;;6.36;100.00;101748.91;4870987;29;20289;-74
2021/12/14 10:01:30;;;;;;;;;;;6.70;99.90;;;6.34;100.00;101752.38;4871529;29;19928;-72
2021/12/14 10:04:03;;;;;;;;;;;7.00;99.90;;;6.38;100.00;101746.34;4870393;29;20432;-74
2021/12/14 10:06:34;;;;;;;;;;;6.80;99.90;;;6.36;100.00;101741.06;4892824;29;19942;-74
2021/12/14 10:09:10;;;;;;;;;;;6.70;99.90;;;6.36;100.00;101735.84;4893127;29;19923;-74
2021/12/14 10:12:00;;;;;;;;;;;7.10;99.90;;;6.34;100.00;101745.41;4882360;29;20026;-73
2021/12/14 10:14:40;;;;;;;;;;;6.70;99.90;;;6.51;100.00;101742.16;4855708;29;20023;-73
2021/12/14 10:17:10;;;;;;;;;;;6.80;99.90;;;6.60;100.00;101739.69;4855911;29;19928;-73
2021/12/14 10:19:37;;;;;;;;;;;6.80;99.90;;;6.67;100.00;101736.28;4855627;29;19932;-74
2021/12/14 10:22:13;;;;;;;;;;;7.40;99.90;;;6.74;100.00;101733.78;4855667;29;19928;-74
2021/12/14 10:24:40;;;;;;;;;;;6.90;99.90;;;6.81;100.00;101736.50;4855467;29;19935;-74
2021/12/14 10:27:12;;;;;;;;;;;7.00;99.90;;;6.74;100.00;101731.16;4857197;29;20599;-73
2021/12/14 10:29:40;;;;;;;;;;;7.00;99.90;;;6.75;100.00;101731.16;4855603;29;19931;-73
2021/12/14 10:32:12;;;;;;;;;;;7.00;99.90;;;6.81;100.00;101741.72;4855591;29;20098;-73
2021/12/14 10:34:46;;;;;;;;;;;7.00;99.90;;;6.84;100.00;101734.78;4856606;29;19928;-74
2021/12/14 10:37:26;;;;;;;;;;;7.00;99.90;;;6.86;100.00;101733.91;4856941;29;19924;-74
2021/12/14 10:45:49;;;;;;;;;;;7.30;99.90;;;6.87;100.00;101745.28;4864442;29;19995;-73
2021/12/14 10:48:20;;;;;;;;;;;7.00;99.90;;;6.96;100.00;101745.41;4872688;29;20389;-73
2021/12/14 10:50:49;;;;;;;;;;;8.20;99.90;;;6.96;100.00;101734.94;4857234;29;20003;-74
2021/12/14 10:53:19;;;;;;;;;;;8.00;99.90;;;6.93;100.00;101733.16;4856879;29;19927;-73
2021/12/14 10:56:13;;;;;;;;;;;8.50;99.90;;;6.89;100.00;101738.31;4859492;29;19915;-74
2021/12/14 10:58:42;;;;;;;;;;;7.10;99.90;;;6.84;100.00;101735.66;4872015;29;19927;-74
2021/12/14 11:01:18;;;;;;;;;;;6.90;99.90;;;6.79;100.00;101737.31;4872205;29;20452;-73
2021/12/14 11:03:52;;;;;;;;;;;7.30;99.90;;;6.81;100.00;101736.50;4871736;29;20403;-74
2021/12/14 11:06:26;;;;;;;;;;;7.10;99.90;;;6.85;100.00;101739.16;4857369;29;20523;-74
2021/12/14 11:09:39;;;;;;;;;;;7.10;99.90;;;6.88;100.00;101752.28;4872048;29;19966;-74
2021/12/14 11:11:53;;;;;;;;;;;7.60;99.90;;;6.83;100.00;101748.72;4864322;29;19939;-73
2021/12/14 11:14:25;;;;;;;;;;;7.20;99.90;;;6.83;100.00;101754.81;4853363;29;19932;-74
2021/12/14 11:19:53;;;;;;;;;;;7.20;99.90;;;6.88;100.00;101750.53;4860732;29;19924;-74
2021/12/14 11:22:25;;;;;;;;;;;7.20;99.90;;;6.90;100.00;101745.31;4861182;29;19934;-74
2021/12/14 11:25:05;;;;;;;;;;;7.20;99.90;;;6.87;100.00;101740.06;4861267;29;20414;-74
2021/12/14 11:27:48;;;;;;;;;;;7.20;99.90;;;7.04;100.00;101742.91;4862230;29;19935;-74
2021/12/14 11:30:25;;;;;;;;;;;7.30;99.90;;;7.09;100.00;101739.44;4862431;29;19934;-74
2021/12/14 11:33:04;;;;;;;;;;;7.30;99.90;;;7.15;100.00;101736.03;4860806;29;19939;-74
2021/12/14 11:35:32;;;;;;;;;;;7.30;99.90;;;7.20;100.00;101736.09;4862188;29;19931;-75
2021/12/14 11:38:01;;;;;;;;;;;7.30;99.90;;;7.34;100.00;101733.66;4860644;29;19924;-73
2021/12/14 11:40:30;;;;;;;;;;;7.30;99.90;;;7.31;100.00;101736.22;4862457;29;19975;-74
2021/12/14 11:43:12;;;;;;;;;;;8.20;99.90;;;7.31;100.00;101736.22;4867039;29;19928;-74
2021/12/14 11:45:41;;;;;;;;;;;7.50;99.90;;;7.28;100.00;101733.56;4863067;29;20460;-74
2021/12/14 11:48:08;;;;;;;;;;;7.50;99.90;;;7.27;100.00;101731.81;4880051;29;19927;-75
2021/12/14 11:50:45;;;;;;;;;;;7.50;99.90;;;7.30;100.00;101737.97;4879497;29;20308;-75
2021/12/14 11:53:17;;;;;;;;;;;7.60;99.90;;;7.32;100.00;101730.13;4894271;29;19931;-73
2021/12/14 11:55:44;;;;;;;;;;;7.80;99.90;;;7.27;100.00;101727.47;4894312;29;20018;-74
2021/12/14 11:58:36;;;;;;;;;;;8.90;99.90;;;7.34;100.00;101729.28;4880607;29;19973;-73
2021/12/14 12:01:12;;;;;;;;;;;7.60;99.90;;;7.40;100.00;101720.63;4897098;29;19927;-74
2021/12/14 12:03:53;;;;;;;;;;;7.70;99.90;;;7.43;100.00;101720.66;4853859;29;19924;-74
2021/12/14 12:06:43;;;;;;;;;;;9.20;99.90;;;7.35;100.00;101719.72;4861771;29;19927;-74
2021/12/14 12:09:35;;;;;;;;;;;7.70;99.90;;;7.42;100.00;101721.50;4875800;29;20297;-74
2021/12/14 12:12:07;;;;;;;;;;;7.70;99.90;;;7.36;100.00;101716.22;4861849;29;20018;-73
2021/12/14 12:14:43;;;;;;;;;;;7.70;99.90;;;7.42;100.00;101705.81;4875826;29;19959;-74
2021/12/14 12:17:35;;;;;;;;;;;7.70;99.90;;;7.38;100.00;101704.03;4861868;29;19924;-75
2021/12/14 12:20:14;;;;;;;;;;;7.70;99.90;;;7.36;100.00;101692.66;4860296;29;19927;-74
2021/12/14 12:22:49;;;;;;;;;;;7.70;99.90;;;7.43;100.00;101693.59;4861593;29;20027;-74
2021/12/14 12:25:24;;;;;;;;;;;9.00;99.90;;;7.50;100.00;101693.69;4876090;29;19928;-75
2021/12/14 12:28:04;;;;;;;;;;;7.70;99.90;;;7.50;100.00;101690.16;4861818;29;20623;-74
2021/12/14 12:31:01;;;;;;;;;;;7.70;99.90;;;7.51;100.00;101686.69;4873557;29;20398;-72